Time;durP1;ratioP1;P1;durP2;ratioP2;P2;SDS_P1;SDS_P2;PMS_P1;PMS_P2;Temp;Humidity;BMP_temperature;BMP_pressure;BME280_temperature;BME280_humidity;BME280_pressure;Samples;Min_cycle;Max_cycle;Signal;HPM_P1;HPM_P2
2024/03/12 00:00:23;;;;;;;9.43;6.27;;;7.00;99.90;6.30;99984.00;;;;4882110;28;87836;-65
2024/03/12 00:02:50;;;;;;;12.83;5.87;;;6.90;99.90;6.30;99974.00;;;;4883960;28;88077;-65
2024/03/12 00:05:22;;;;;;;7.77;5.70;;;6.50;99.90;6.30;99978.00;;;;4881471;28;87834;-65
2024/03/12 00:07:49;;;;;;;8.53;5.27;;;6.50;99.90;6.30;99977.00;;;;4874333;28;88091;-65
2024/03/12 00:10:19;;;;;;;5.57;4.07;;;6.50;99.90;6.30;99986.00;;;;4877850;28;88263;-64
2024/03/12 00:12:49;;;;;;;6.63;4.57;;;6.40;99.90;6.30;99977.00;;;;4875827;28;87250;-65
2024/03/12 00:15:24;;;;;;;11.90;4.80;;;6.40;99.90;6.30;99974.00;;;;4877261;28;88021;-64
2024/03/12 00:17:53;;;;;;;9.00;4.93;;;6.70;99.90;6.30;99979.00;;;;4877592;28;88956;-65
2024/03/12 00:20:24;;;;;;;5.73;3.13;;;6.30;99.90;6.30;99976.00;;;;4879269;28;88952;-65
2024/03/12 00:22:50;;;;;;;5.33;4.57;;;6.40;99.90;6.30;99969.00;;;;4879651;28;88053;-65
2024/03/12 00:25:20;;;;;;;9.07;5.33;;;7.00;99.90;6.30;99973.00;;;;4882361;28;117404;-65
2024/03/12 00:27:47;;;;;;;8.13;5.37;;;6.40;99.90;6.30;99971.00;;;;4881380;28;88599;-65
2024/03/12 00:30:14;;;;;;;5.73;3.77;;;7.10;99.90;6.30;99973.00;;;;4878468;28;87866;-64
2024/03/12 00:32:41;;;;;;;7.07;4.00;;;6.40;99.90;6.30;99976.00;;;;4879416;28;87917;-65
2024/03/12 00:35:10;;;;;;;10.33;4.50;;;6.40;99.90;6.30;99976.00;;;;4877721;28;88252;-65
2024/03/12 00:37:38;;;;;;;4.83;4.10;;;6.40;99.90;6.30;99987.00;;;;4878003;28;87957;-65
2024/03/12 00:40:05;;;;;;;7.87;4.63;;;6.50;99.90;6.30;99986.00;;;;4878934;28;91232;-65
2024/03/12 00:42:32;;;;;;;8.83;5.20;;;6.50;99.90;6.30;99973.00;;;;4878633;28;102041;-64
2024/03/12 00:44:58;;;;;;;5.37;4.37;;;6.50;99.90;6.30;99977.00;;;;4874005;28;89999;-64
2024/03/12 00:47:25;;;;;;;5.53;3.93;;;6.50;99.90;6.30;99977.00;;;;4878724;28;89696;-64
2024/03/12 00:49:50;;;;;;;8.33;4.67;;;6.50;99.90;6.30;99971.00;;;;4879509;28;87945;-65
2024/03/12 00:52:17;;;;;;;9.20;5.63;;;6.70;99.90;6.30;99967.00;;;;4877657;28;87895;-64
2024/03/12 00:54:46;;;;;;;7.40;5.60;;;6.90;99.90;6.30;99976.00;;;;4878538;28;89090;-65
2024/03/12 00:57:13;;;;;;;6.33;4.93;;;6.50;99.90;6.30;99977.00;;;;4876781;28;88242;-64
2024/03/12 00:59:40;;;;;;;8.10;4.87;;;7.10;99.90;6.30;99979.00;;;;4878668;28;87861;-65
2024/03/12 01:02:10;;;;;;;5.27;3.80;;;6.40;99.90;6.30;99977.00;;;;4878854;28;87308;-65
2024/03/12 01:04:38;;;;;;;6.53;4.27;;;6.60;99.90;6.30;99985.00;;;;4882201;28;88995;-65
2024/03/12 01:07:07;;;;;;;6.33;3.80;;;7.20;99.90;6.30;99974.00;;;;4878301;28;88353;-65
2024/03/12 01:09:39;;;;;;;6.53;4.23;;;6.40;99.90;6.20;99978.00;;;;4876771;28;88880;-65
2024/03/12 01:12:11;;;;;;;4.97;4.47;;;6.40;99.90;6.20;99982.00;;;;4880584;28;88040;-64
2024/03/12 01:14:37;;;;;;;5.03;4.30;;;6.90;99.90;6.10;99982.00;;;;4880554;28;87761;-65
2024/03/12 01:17:06;;;;;;;4.47;3.27;;;6.30;99.90;6.10;99980.00;;;;4875142;28;118164;-64
2024/03/12 01:19:33;;;;;;;4.20;3.20;;;6.30;99.90;6.10;99983.00;;;;4880594;28;87786;-64
2024/03/12 01:21:59;;;;;;;4.60;3.33;;;6.60;99.90;6.10;99984.00;;;;4877926;28;88203;-65
2024/03/12 01:24:26;;;;;;;5.20;3.50;;;6.20;99.90;6.10;99985.00;;;;4882008;28;111037;-64
2024/03/12 01:26:52;;;;;;;6.33;3.37;;;6.20;99.90;6.10;99984.00;;;;4876629;28;88592;-65
2024/03/12 01:29:18;;;;;;;4.40;3.60;;;7.00;99.90;6.00;99984.00;;;;4879378;28;101001;-64
2024/03/12 01:31:45;;;;;;;3.37;3.03;;;6.20;99.90;6.00;99983.00;;;;4881730;28;99008;-65
2024/03/12 01:34:10;;;;;;;5.47;3.40;;;6.20;99.90;6.00;99983.00;;;;4882350;28;90451;-64
2024/03/12 01:36:39;;;;;;;5.03;3.43;;;6.60;99.90;6.00;99985.00;;;;4872161;28;118095;-65
2024/03/12 01:39:08;;;;;;;4.73;3.13;;;6.20;99.90;6.00;99985.00;;;;4877837;28;87840;-64
2024/03/12 01:41:41;;;;;;;7.67;3.97;;;6.90;99.90;6.00;99992.00;;;;4881223;28;88484;-64
2024/03/12 01:44:09;;;;;;;3.93;2.97;;;7.00;99.90;6.00;99997.00;;;;4882997;28;88249;-64
2024/03/12 01:46:36;;;;;;;3.70;2.93;;;6.30;99.90;6.00;99990.00;;;;4881109;28;100500;-65
2024/03/12 01:49:08;;;;;;;3.77;2.53;;;6.90;99.90;6.00;99992.00;;;;4878222;28;87641;-65
2024/03/12 01:51:35;;;;;;;4.43;3.40;;;6.20;99.90;6.00;99999.00;;;;4880028;28;87438;-64
2024/03/12 01:54:03;;;;;;;2.63;2.37;;;6.80;99.90;6.00;100001.00;;;;4881381;28;112113;-64
2024/03/12 01:56:32;;;;;;;3.20;2.60;;;6.40;99.90;6.00;100001.00;;;;4876470;28;88043;-64
2024/03/12 01:58:58;;;;;;;4.67;3.10;;;6.20;99.90;6.00;99995.00;;;;4874627;28;88879;-65
2024/03/12 02:01:25;;;;;;;4.23;3.17;;;7.00;99.90;6.00;100001.00;;;;4876699;28;87754;-64
2024/03/12 02:03:54;;;;;;;8.23;3.43;;;6.10;99.90;6.00;99993.00;;;;4877998;28;105007;-64
2024/03/12 02:06:22;;;;;;;4.83;3.27;;;6.10;99.90;6.00;99996.00;;;;4876456;28;88581;-64
2024/03/12 02:08:50;;;;;;;6.33;2.63;;;6.20;99.90;6.10;100000.00;;;;4877743;28;87930;-64
2024/03/12 02:11:16;;;;;;;3.80;2.53;;;6.80;99.90;6.10;99997.00;;;;4881670;28;96578;-64
2024/03/12 02:13:42;;;;;;;3.93;2.63;;;6.20;99.90;6.10;100000.00;;;;4880471;28;117597;-64
2024/03/12 02:16:09;;;;;;;3.67;2.33;;;6.90;99.90;6.10;100006.00;;;;4881729;28;88122;-64
2024/03/12 02:18:44;;;;;;;2.87;2.60;;;6.20;99.90;6.10;100004.00;;;;4878636;28;88025;-64
2024/03/12 02:21:10;;;;;;;2.50;2.30;;;6.30;99.90;6.10;100001.00;;;;4882261;28;108464;-64
2024/03/12 02:23:46;;;;;;;4.60;2.57;;;6.20;99.90;6.10;100001.00;;;;4882358;28;119838;-64
2024/03/12 02:26:11;;;;;;;4.60;2.77;;;6.90;99.90;6.10;100000.00;;;;4885355;28;89374;-64
2024/03/12 02:28:37;;;;;;;3.17;2.70;;;6.30;99.90;6.10;100001.00;;;;4882904;28;111149;-64
2024/03/12 02:31:07;;;;;;;3.57;2.60;;;7.00;99.90;6.10;100005.00;;;;4879863;28;88106;-64
2024/03/12 02:33:33;;;;;;;3.50;2.13;;;6.30;99.90;6.10;100000.00;;;;4878084;28;88146;-64
2024/03/12 02:35:59;;;;;;;3.30;2.00;;;6.80;99.90;6.10;100001.00;;;;4880136;28;118670;-64
2024/03/12 02:38:26;;;;;;;3.53;2.97;;;6.30;99.90;6.10;100008.00;;;;4883688;28;110247;-64
2024/03/12 02:40:52;;;;;;;5.87;2.60;;;6.90;99.90;6.20;100005.00;;;;4885909;28;87160;-64
2024/03/12 02:43:18;;;;;;;3.13;2.57;;;6.30;99.90;6.20;100008.00;;;;4882805;28;118979;-65
2024/03/12 02:45:45;;;;;;;5.17;2.83;;;7.20;99.90;6.20;100008.00;;;;4880416;28;116030;-64
2024/03/12 02:48:12;;;;;;;2.60;2.40;;;6.30;99.90;6.20;100003.00;;;;4881169;28;89551;-64
2024/03/12 02:50:41;;;;;;;2.57;2.33;;;6.30;99.90;6.10;100010.00;;;;4877236;28;87748;-65
2024/03/12 02:53:06;;;;;;;3.30;3.00;;;6.30;99.90;6.10;100010.00;;;;4884286;28;117797;-64
2024/03/12 02:55:34;;;;;;;5.13;2.87;;;6.30;99.90;6.10;100012.00;;;;4883999;28;92608;-64
2024/03/12 02:58:02;;;;;;;2.57;2.33;;;6.30;99.90;6.10;100002.00;;;;4884621;28;87775;-66
2024/03/12 03:00:28;;;;;;;3.47;2.77;;;6.90;99.90;6.00;100016.00;;;;4880097;28;88164;-64
2024/03/12 03:02:54;;;;;;;4.97;2.53;;;6.20;99.90;6.00;100010.00;;;;4882234;28;88146;-64
2024/03/12 03:05:20;;;;;;;2.43;2.13;;;7.00;99.90;6.00;100007.00;;;;4881661;28;87948;-65
2024/03/12 03:07:48;;;;;;;2.00;1.80;;;6.80;99.90;6.00;100008.00;;;;4882362;28;111121;-64
2024/03/12 03:10:14;;;;;;;4.33;3.07;;;6.10;99.90;6.00;100010.00;;;;4880787;28;87861;-64
2024/03/12 03:12:43;;;;;;;2.50;2.30;;;6.90;99.90;6.00;100010.00;;;;4880176;28;89519;-64
2024/03/12 03:15:12;;;;;;;2.57;2.37;;;6.20;99.90;5.90;100017.00;;;;4881539;28;101857;-64
2024/03/12 03:17:39;;;;;;;4.60;2.60;;;6.70;99.90;5.90;100009.00;;;;4879852;28;100851;-64
2024/03/12 03:20:06;;;;;;;3.43;2.47;;;6.00;99.90;5.90;100008.00;;;;4878953;28;87990;-64
2024/03/12 03:22:32;;;;;;;1.57;1.47;;;6.10;99.90;5.90;100014.00;;;;4880278;28;88830;-64
2024/03/12 03:24:58;;;;;;;3.90;2.47;;;6.10;99.90;5.90;100014.00;;;;4880394;28;87883;-65
2024/03/12 03:27:23;;;;;;;2.50;2.30;;;6.30;99.90;5.80;100004.00;;;;4877069;28;109981;-64
2024/03/12 03:29:49;;;;;;;4.00;3.33;;;6.40;99.90;5.80;100010.00;;;;4879686;28;87356;-64
2024/03/12 03:32:15;;;;;;;3.67;2.27;;;5.90;99.90;5.80;100010.00;;;;4876274;28;88667;-65
2024/03/12 03:34:42;;;;;;;3.40;1.87;;;5.90;99.90;5.80;100016.00;;;;4876655;28;117957;-65
2024/03/12 03:37:08;;;;;;;2.60;2.17;;;5.90;99.90;5.80;100014.00;;;;4880315;28;88709;-65
2024/03/12 03:39:35;;;;;;;3.30;2.57;;;6.60;99.90;5.80;100028.00;;;;4880131;28;87728;-66
2024/03/12 03:42:02;;;;;;;3.53;2.53;;;5.90;99.90;5.80;100023.00;;;;4878047;28;88446;-65
2024/03/12 03:44:29;;;;;;;2.47;2.27;;;6.70;99.90;5.80;100015.00;;;;4879849;28;88714;-65
2024/03/12 03:46:55;;;;;;;4.13;2.83;;;6.30;99.90;5.70;100027.00;;;;4881059;28;87809;-65
2024/03/12 03:49:21;;;;;;;4.03;2.40;;;6.00;99.90;5.70;100021.00;;;;4878876;28;89382;-65
2024/03/12 03:51:47;;;;;;;3.87;2.90;;;5.90;99.90;5.70;100017.00;;;;4878927;28;89088;-66
2024/03/12 03:54:13;;;;;;;2.43;2.23;;;6.70;99.90;5.70;100021.00;;;;4877514;28;117435;-65
2024/03/12 03:56:38;;;;;;;3.77;2.47;;;5.80;99.90;5.60;100017.00;;;;4881745;28;110892;-66
2024/03/12 03:59:05;;;;;;;3.47;3.17;;;5.90;99.90;5.60;100020.00;;;;4879310;28;87895;-66
2024/03/12 04:01:31;;;;;;;4.10;2.33;;;6.60;99.90;5.60;100032.00;;;;4878640;28;89782;-65
2024/03/12 04:03:58;;;;;;;5.10;3.10;;;5.80;99.90;5.60;100026.00;;;;4878597;28;89153;-65
2024/03/12 04:06:24;;;;;;;3.33;3.03;;;6.00;99.90;5.60;100037.00;;;;4879449;28;87912;-65
2024/03/12 04:08:50;;;;;;;2.27;2.07;;;5.80;99.90;5.60;100040.00;;;;4878771;28;109015;-65
2024/03/12 04:11:20;;;;;;;2.03;1.83;;;5.80;99.90;5.60;100040.00;;;;4876540;28;105087;-65
2024/03/12 04:13:54;;;;;;;3.40;3.10;;;6.40;99.90;5.60;100048.00;;;;4874328;28;88084;-65
2024/03/12 04:16:20;;;;;;;5.10;2.50;;;5.80;99.90;5.60;100044.00;;;;4879933;28;87739;-65
2024/03/12 04:18:46;;;;;;;3.67;2.80;;;6.20;99.90;5.60;100061.00;;;;4877877;28;97769;-65
2024/03/12 04:21:12;;;;;;;6.27;3.53;;;5.70;99.90;5.60;100055.00;;;;4875888;28;110192;-65
2024/03/12 04:23:38;;;;;;;4.93;2.80;;;5.80;99.90;5.50;100054.00;;;;4882513;28;88403;-65
2024/03/12 04:26:04;;;;;;;3.20;2.90;;;5.70;99.90;5.50;100063.00;;;;4875092;28;89118;-65
2024/03/12 04:28:31;;;;;;;3.83;2.70;;;5.60;99.90;5.50;100055.00;;;;4879954;28;109265;-65
2024/03/12 04:30:57;;;;;;;3.03;2.57;;;5.70;99.90;5.50;100069.00;;;;4880838;28;89165;-65
2024/03/12 04:33:24;;;;;;;3.30;3.00;;;5.90;99.90;5.60;100061.00;;;;4876626;28;105295;-65
2024/03/12 04:35:52;;;;;;;4.83;3.47;;;5.60;99.90;5.50;100059.00;;;;4882141;28;87723;-65
2024/03/12 04:38:18;;;;;;;4.00;3.33;;;5.70;99.90;5.50;100066.00;;;;4882271;28;88399;-65
2024/03/12 04:40:47;;;;;;;3.53;3.10;;;5.70;99.90;5.50;100084.00;;;;4880550;28;88268;-65
2024/03/12 04:43:13;;;;;;;3.77;2.90;;;5.60;99.90;5.50;100087.00;;;;4895355;28;87738;-65
2024/03/12 04:45:42;;;;;;;4.20;3.03;;;5.60;99.90;5.40;100091.00;;;;4879469;28;88032;-65
2024/03/12 04:48:11;;;;;;;4.03;3.53;;;5.60;99.90;5.40;100091.00;;;;4877268;28;106902;-65
2024/03/12 04:50:38;;;;;;;4.50;3.63;;;6.30;99.90;5.40;100090.00;;;;4875380;28;119072;-66
2024/03/12 04:53:04;;;;;;;3.80;3.07;;;5.80;99.90;5.40;100093.00;;;;4880518;28;115130;-65
2024/03/12 04:55:34;;;;;;;6.40;4.00;;;5.60;99.90;5.40;100094.00;;;;4879094;28;87730;-65
2024/03/12 04:58:00;;;;;;;5.50;4.33;;;5.80;99.90;5.40;100090.00;;;;4880884;28;87793;-65
2024/03/12 05:00:26;;;;;;;9.40;3.53;;;6.10;99.90;5.40;100099.00;;;;4880339;28;114480;-65
2024/03/12 05:02:52;;;;;;;5.23;3.43;;;5.60;99.90;5.40;100093.00;;;;4878478;28;88366;-66
2024/03/12 05:05:19;;;;;;;3.37;3.07;;;5.50;99.90;5.40;100097.00;;;;4881001;28;109805;-66
2024/03/12 05:07:45;;;;;;;5.20;3.33;;;6.20;99.90;5.30;100104.00;;;;4875558;28;87148;-66
2024/03/12 05:10:11;;;;;;;4.63;2.70;;;5.50;99.90;5.30;100102.00;;;;4871863;28;108609;-65
2024/03/12 05:12:37;;;;;;;4.40;3.73;;;5.40;99.90;5.30;100107.00;;;;4880701;28;107637;-65
2024/03/12 05:15:08;;;;;;;2.93;2.60;;;6.40;99.90;5.20;100108.00;;;;4877777;28;89100;-65
2024/03/12 05:17:36;;;;;;;7.93;4.83;;;5.50;99.90;5.20;100106.00;;;;4877268;28;88453;-65
2024/03/12 05:20:06;;;;;;;5.40;4.60;;;5.40;99.90;5.20;100119.00;;;;4877356;28;88953;-65
2024/03/12 05:22:34;;;;;;;8.00;5.60;;;5.40;99.90;5.20;100122.00;;;;4880680;28;89833;-65
2024/03/12 05:25:01;;;;;;;8.20;4.67;;;5.40;99.90;5.10;100123.00;;;;4878821;28;99518;-65
2024/03/12 05:27:35;;;;;;;5.90;4.47;;;5.30;99.90;5.10;100135.00;;;;4874358;28;88832;-65
2024/03/12 05:30:10;;;;;;;5.27;3.63;;;5.20;99.90;5.10;100139.00;;;;4879018;28;91066;-65
2024/03/12 05:32:41;;;;;;;13.07;9.70;;;5.20;99.90;5.00;100147.00;;;;4878323;28;88577;-65
2024/03/12 05:35:16;;;;;;;9.03;6.17;;;5.20;99.90;5.00;100134.00;;;;4881537;28;87996;-64
2024/03/12 05:38:01;;;;;;;6.37;3.90;;;5.20;99.90;5.00;100143.00;;;;4874947;28;90064;-65
2024/03/12 05:40:43;;;;;;;5.10;4.60;;;5.10;99.90;5.00;100147.00;;;;4876833;28;89808;-64
2024/03/12 05:48:42;;;;;;;9.03;6.80;;;5.20;99.90;5.00;100148.00;;;;4873493;28;87845;-65
2024/03/12 05:51:08;;;;;;;8.70;5.57;;;5.20;99.90;5.10;100151.00;;;;4873936;28;88539;-64
2024/03/12 05:53:36;;;;;;;7.03;5.03;;;5.30;99.90;5.10;100147.00;;;;4874890;28;87935;-64
2024/03/12 05:56:09;;;;;;;10.47;6.40;;;5.90;99.90;5.20;100151.00;;;;4878251;28;87837;-64
2024/03/12 05:58:35;;;;;;;11.37;7.37;;;5.30;99.90;5.20;100149.00;;;;4878979;28;87467;-66
2024/03/12 06:01:02;;;;;;;5.90;5.30;;;5.30;99.90;5.20;100164.00;;;;4880550;28;89159;-64
2024/03/12 06:03:29;;;;;;;12.60;8.70;;;5.40;99.90;5.30;100161.00;;;;4877578;28;88328;-64
2024/03/12 06:05:54;;;;;;;18.13;10.13;;;5.50;99.90;5.30;100167.00;;;;4879603;28;88729;-65
2024/03/12 06:08:24;;;;;;;17.60;12.17;;;5.50;99.90;5.30;100167.00;;;;4874900;28;100673;-63
2024/03/12 06:10:53;;;;;;;9.50;6.97;;;5.50;99.90;5.30;100165.00;;;;4881196;28;88957;-66
2024/03/12 06:13:20;;;;;;;7.73;6.10;;;5.50;99.90;5.30;100170.00;;;;4892282;28;116859;-65
2024/03/12 06:15:46;;;;;;;7.40;4.80;;;5.50;99.90;5.30;100174.00;;;;4882169;28;88030;-65
2024/03/12 06:18:13;;;;;;;8.13;6.00;;;6.30;99.90;5.40;100185.00;;;;4877423;28;99148;-66
2024/03/12 06:20:40;;;;;;;5.43;4.80;;;5.50;99.90;5.40;100187.00;;;;4877300;28;88698;-63
2024/03/12 06:23:05;;;;;;;6.37;5.23;;;6.00;99.90;5.50;100184.00;;;;4874651;28;88379;-65
2024/03/12 06:25:31;;;;;;;7.10;4.50;;;5.60;99.90;5.60;100194.00;;;;4877042;28;110313;-66
2024/03/12 06:28:05;;;;;;;6.80;5.17;;;6.40;99.90;5.60;100194.00;;;;4880850;28;88192;-63
2024/03/12 06:30:33;;;;;;;9.57;5.47;;;5.70;99.90;5.70;100202.00;;;;4880591;28;89639;-65
2024/03/12 06:32:58;;;;;;;5.80;4.23;;;5.80;99.90;5.70;100202.00;;;;4877357;28;89559;-65
2024/03/12 06:35:24;;;;;;;5.70;4.03;;;5.90;99.90;5.80;100200.00;;;;4879109;28;87818;-65
2024/03/12 06:37:50;;;;;;;5.93;4.90;;;6.50;99.90;5.80;100207.00;;;;4875916;28;108280;-65
2024/03/12 06:40:17;;;;;;;7.57;4.60;;;6.70;99.90;5.90;100206.00;;;;4880890;28;90325;-66
2024/03/12 06:42:44;;;;;;;13.03;8.97;;;6.50;99.90;6.00;100210.00;;;;4879888;28;88073;-66
2024/03/12 06:45:11;;;;;;;12.50;6.40;;;6.10;99.90;6.00;100218.00;;;;4877228;28;87855;-65
2024/03/12 06:47:40;;;;;;;11.43;5.37;;;6.10;99.90;6.10;100211.00;;;;4881766;28;87070;-65
2024/03/12 06:50:10;;;;;;;6.60;4.70;;;6.80;99.90;6.10;100208.00;;;;4878398;28;88507;-65
2024/03/12 06:52:36;;;;;;;4.97;3.70;;;6.20;99.90;6.20;100210.00;;;;4882033;28;88765;-65
2024/03/12 06:55:05;;;;;;;4.10;3.57;;;6.20;99.90;6.30;100213.00;;;;4878192;28;88828;-66
2024/03/12 06:57:34;;;;;;;6.93;4.43;;;6.30;99.90;6.40;100220.00;;;;4875865;28;87769;-65
2024/03/12 07:00:09;;;;;;;5.87;3.67;;;6.50;99.90;6.40;100212.00;;;;4872073;28;89125;-65
2024/03/12 07:02:38;;;;;;;4.67;4.00;;;6.50;99.90;6.50;100213.00;;;;4875522;28;92329;-65
2024/03/12 07:05:07;;;;;;;5.13;4.30;;;6.60;99.90;6.60;100221.00;;;;4881298;28;87776;-65
2024/03/12 07:07:33;;;;;;;5.43;4.27;;;6.70;99.90;6.70;100221.00;;;;4883544;28;88387;-65
2024/03/12 07:10:03;;;;;;;6.37;4.60;;;6.80;99.90;6.80;100219.00;;;;4881600;28;88640;-65
2024/03/12 07:12:31;;;;;;;4.67;4.20;;;6.90;99.90;6.90;100227.00;;;;4884180;28;88785;-66
2024/03/12 07:14:57;;;;;;;5.90;4.63;;;7.30;99.90;7.00;100223.00;;;;4883109;28;88107;-66
2024/03/12 07:17:22;;;;;;;8.83;4.33;;;7.10;99.90;7.10;100227.00;;;;4878754;28;88250;-66
2024/03/12 07:19:49;;;;;;;4.87;4.17;;;7.10;99.90;7.20;100219.00;;;;4879055;28;118283;-65
2024/03/12 07:22:17;;;;;;;4.03;3.37;;;7.20;99.90;7.30;100229.00;;;;4878762;28;88626;-65
2024/03/12 07:24:43;;;;;;;4.53;3.63;;;7.30;99.90;7.40;100228.00;;;;4880331;28;87879;-65
2024/03/12 07:27:12;;;;;;;4.30;3.77;;;7.50;99.90;7.50;100240.00;;;;4879031;28;99486;-65
2024/03/12 07:29:38;;;;;;;4.10;3.40;;;7.60;99.90;7.70;100235.00;;;;4878398;28;89223;-65
2024/03/12 07:32:04;;;;;;;4.70;3.17;;;7.70;99.90;7.80;100243.00;;;;4879053;28;118340;-64
2024/03/12 07:34:31;;;;;;;7.33;4.50;;;7.90;99.90;8.00;100237.00;;;;4881510;28;88048;-64
2024/03/12 07:37:00;;;;;;;3.77;3.40;;;8.10;99.90;8.30;100236.00;;;;4883168;28;100079;-65
2024/03/12 07:39:31;;;;;;;5.83;4.30;;;8.20;99.90;8.50;100242.00;;;;4881150;28;88750;-65
2024/03/12 07:41:59;;;;;;;6.63;4.47;;;8.50;99.90;8.80;100237.00;;;;4881278;28;88498;-66
2024/03/12 07:44:25;;;;;;;3.73;3.37;;;8.80;99.90;9.00;100241.00;;;;4881512;28;88824;-65
2024/03/12 07:46:52;;;;;;;6.97;4.53;;;9.00;99.90;9.30;100241.00;;;;4881147;28;87889;-65
2024/03/12 07:49:21;;;;;;;5.77;3.90;;;9.20;99.90;9.60;100238.00;;;;4880329;28;88736;-63
2024/03/12 07:51:50;;;;;;;4.20;3.23;;;9.50;99.90;9.90;100241.00;;;;4884450;28;87824;-63
2024/03/12 07:54:20;;;;;;;5.77;3.37;;;9.80;99.90;10.20;100243.00;;;;4881781;28;88039;-65
2024/03/12 07:56:49;;;;;;;3.87;3.30;;;10.10;99.90;10.50;100242.00;;;;4882888;28;87807;-65
2024/03/12 07:59:17;;;;;;;6.03;4.33;;;10.40;99.90;10.70;100246.00;;;;4882556;28;88817;-64
2024/03/12 08:01:46;;;;;;;4.83;3.30;;;10.70;99.90;10.90;100242.00;;;;4876406;28;88394;-65
2024/03/12 08:04:13;;;;;;;5.90;3.70;;;10.90;99.90;11.20;100244.00;;;;4880181;28;87555;-65
2024/03/12 08:06:43;;;;;;;4.53;3.37;;;11.10;99.90;11.40;100243.00;;;;4886564;28;88018;-65
2024/03/12 08:09:09;;;;;;;5.13;4.57;;;11.40;99.90;11.70;100236.00;;;;4877128;28;89009;-64
2024/03/12 08:11:36;;;;;;;5.23;3.63;;;11.70;99.90;11.90;100252.00;;;;4880914;28;102200;-64
2024/03/12 08:14:06;;;;;;;4.77;3.93;;;11.90;99.90;12.20;100256.00;;;;4876635;28;88136;-65
2024/03/12 08:16:32;;;;;;;7.03;4.17;;;12.10;99.90;12.40;100254.00;;;;4882433;28;87862;-63
2024/03/12 08:18:58;;;;;;;5.70;4.07;;;12.30;99.90;12.60;100259.00;;;;4875578;28;94828;-63
2024/03/12 08:21:28;;;;;;;6.00;4.00;;;12.50;99.90;12.80;100253.00;;;;4884271;28;88555;-62
2024/03/12 08:23:58;;;;;;;11.67;3.87;;;12.80;99.90;13.00;100254.00;;;;4883593;28;109497;-64
2024/03/12 08:26:27;;;;;;;5.57;3.10;;;13.00;99.90;13.20;100256.00;;;;4885107;28;87053;-64
2024/03/12 08:28:55;;;;;;;5.77;2.90;;;13.20;99.90;13.40;100260.00;;;;4885120;28;88828;-64
2024/03/12 08:31:22;;;;;;;5.87;3.47;;;13.40;99.90;13.70;100256.00;;;;4884320;28;88107;-63
2024/03/12 08:33:48;;;;;;;5.67;3.07;;;13.60;99.90;13.90;100250.00;;;;4882370;28;88880;-63
2024/03/12 08:36:14;;;;;;;4.90;3.00;;;13.80;99.90;14.10;100254.00;;;;4881108;28;87809;-63
2024/03/12 08:38:40;;;;;;;7.65;3.30;;;14.00;99.90;14.20;100264.00;;;;4891853;28;88698;-64
2024/03/12 08:41:09;;;;;;;5.47;3.05;;;14.20;99.90;14.40;100259.00;;;;4877068;28;88185;-64
2024/03/12 08:43:36;;;;;;;4.38;3.13;;;14.40;99.90;14.60;100258.00;;;;4882990;28;87982;-64
2024/03/12 08:46:03;;;;;;;4.00;3.42;;;14.50;99.90;14.90;100264.00;;;;4876993;28;87819;-63
2024/03/12 08:48:29;;;;;;;3.67;2.75;;;14.80;99.90;15.10;100261.00;;;;4879437;28;88944;-65
2024/03/12 08:50:56;;;;;;;3.83;2.70;;;15.00;99.90;15.40;100256.00;;;;4881068;28;88417;-65
2024/03/12 08:53:22;;;;;;;5.97;2.80;;;15.30;99.10;15.50;100262.00;;;;4877804;28;88184;-64
2024/03/12 08:55:47;;;;;;;5.10;2.50;;;15.50;98.20;15.60;100268.00;;;;4879061;28;107480;-63
2024/03/12 08:58:13;;;;;;;3.50;2.67;;;15.60;97.00;15.70;100274.00;;;;4876734;28;100086;-63
2024/03/12 09:00:43;;;;;;;4.97;3.03;;;15.80;96.20;15.80;100269.00;;;;4879124;28;118784;-64
2024/03/12 09:03:09;;;;;;;3.80;2.83;;;15.80;94.20;15.70;100267.00;;;;4880608;28;87897;-64
2024/03/12 09:05:35;;;;;;;4.65;2.78;;;15.80;94.40;15.90;100283.00;;;;4883497;28;110189;-64
2024/03/12 09:08:04;;;;;;;10.02;2.55;;;15.90;94.50;16.00;100274.00;;;;4879987;28;89274;-64
2024/03/12 09:10:30;;;;;;;5.10;2.80;;;16.00;94.10;16.00;100276.00;;;;4880160;28;89205;-64
2024/03/12 09:12:57;;;;;;;2.75;2.28;;;16.10;93.20;16.00;100283.00;;;;4881117;28;88082;-64
2024/03/12 09:15:22;;;;;;;3.17;2.33;;;16.10;92.80;16.10;100283.00;;;;4873929;28;108788;-63
2024/03/12 09:17:48;;;;;;;3.00;2.15;;;16.10;92.70;16.10;100279.00;;;;4880325;28;118048;-64
2024/03/12 09:20:15;;;;;;;4.22;1.95;;;16.10;92.50;16.20;100288.00;;;;4877615;28;89649;-65
2024/03/12 09:22:44;;;;;;;4.03;2.38;;;16.20;92.40;16.20;100284.00;;;;4876914;28;88767;-63
2024/03/12 09:25:10;;;;;;;4.10;2.55;;;16.30;91.20;16.30;100291.00;;;;4878024;28;88129;-64
2024/03/12 09:27:37;;;;;;;2.72;2.00;;;16.30;90.50;16.40;100292.00;;;;4878720;28;89209;-64
2024/03/12 09:30:05;;;;;;;4.70;2.80;;;16.40;90.70;16.50;100295.00;;;;4880844;28;109497;-64
2024/03/12 09:32:31;;;;;;;4.30;2.50;;;16.50;89.30;16.50;100298.00;;;;4879422;28;88308;-64
2024/03/12 09:34:57;;;;;;;4.18;2.70;;;16.60;88.20;16.60;100302.00;;;;4878966;28;109103;-64
2024/03/12 09:37:23;;;;;;;3.03;2.30;;;16.60;88.40;16.80;100300.00;;;;4876215;28;88664;-64
2024/03/12 09:39:52;;;;;;;2.55;2.00;;;16.80;85.80;17.10;100301.00;;;;4880127;28;86885;-65
2024/03/12 09:42:22;;;;;;;2.03;1.70;;;16.90;86.40;17.30;100304.00;;;;4879329;28;110792;-65
2024/03/12 09:44:51;;;;;;;2.40;1.80;;;17.20;84.20;17.40;100300.00;;;;4877806;28;96081;-65
2024/03/12 09:47:18;;;;;;;3.95;1.92;;;17.40;83.60;17.50;100311.00;;;;4875992;28;89755;-63
2024/03/12 09:49:44;;;;;;;4.93;2.58;;;17.50;84.40;17.70;100310.00;;;;4881280;28;108298;-65
2024/03/12 09:52:11;;;;;;;4.15;2.53;;;17.60;83.10;17.70;100310.00;;;;4878881;28;87859;-65
2024/03/12 09:54:38;;;;;;;2.58;2.38;;;17.60;82.80;17.80;100306.00;;;;4882119;28;87833;-64
2024/03/12 09:57:05;;;;;;;3.08;1.92;;;17.70;82.30;17.90;100306.00;;;;4878953;28;88816;-64
2024/03/12 09:59:32;;;;;;;3.30;2.38;;;17.80;82.70;18.00;100299.00;;;;4873874;28;88453;-64
2024/03/12 10:02:01;;;;;;;3.45;2.13;;;17.90;81.70;17.90;100306.00;;;;4879539;28;111089;-64
2024/03/12 10:04:30;;;;;;;5.47;2.25;;;17.90;80.70;17.80;100310.00;;;;4880606;28;87770;-64
2024/03/12 10:06:55;;;;;;;3.05;2.28;;;17.80;80.20;17.80;100306.00;;;;4877976;28;116783;-64
2024/03/12 10:09:27;;;;;;;3.30;1.98;;;17.70;80.00;17.80;100308.00;;;;4880895;28;105303;-65
2024/03/12 10:11:54;;;;;;;2.40;2.00;;;17.70;80.90;17.80;100313.00;;;;4879212;28;88731;-64
2024/03/12 10:14:22;;;;;;;4.65;2.85;;;17.70;80.40;17.90;100322.00;;;;4880323;28;87713;-64
2024/03/12 10:16:49;;;;;;;3.38;2.70;;;17.80;79.20;17.90;100317.00;;;;4878489;28;88825;-64
2024/03/12 10:19:15;;;;;;;3.83;2.10;;;17.80;79.50;18.00;100326.00;;;;4878025;28;88036;-65
2024/03/12 10:21:41;;;;;;;2.35;2.08;;;17.90;77.20;17.90;100320.00;;;;4881113;28;95271;-65
2024/03/12 10:24:13;;;;;;;3.65;1.88;;;17.90;76.90;17.90;100315.00;;;;4880511;28;89012;-64
2024/03/12 10:26:44;;;;;;;3.55;2.50;;;17.80;77.50;18.00;100316.00;;;;4885869;28;88572;-64
2024/03/12 10:29:13;;;;;;;3.03;2.58;;;17.90;77.70;18.00;100315.00;;;;4882583;28;88368;-64
2024/03/12 10:31:40;;;;;;;3.83;2.72;;;17.90;76.10;18.10;100315.00;;;;4876494;28;88070;-64
2024/03/12 10:34:13;;;;;;;3.28;2.10;;;18.00;76.40;18.10;100312.00;;;;4874191;28;87945;-64
2024/03/12 10:36:42;;;;;;;4.00;1.92;;;17.90;73.90;17.90;100315.00;;;;4880147;28;89156;-64
2024/03/12 10:39:13;;;;;;;3.20;1.92;;;17.90;73.50;17.90;100316.00;;;;4881890;28;90145;-64
2024/03/12 10:41:43;;;;;;;3.58;2.28;;;17.80;74.30;17.90;100323.00;;;;4883446;28;87811;-64
2024/03/12 10:44:12;;;;;;;1.25;1.15;;;17.80;74.60;17.90;100322.00;;;;4883109;28;87956;-64
2024/03/12 10:46:44;;;;;;;3.95;2.35;;;17.80;73.60;17.80;100320.00;;;;4882353;28;88630;-64
2024/03/12 10:49:12;;;;;;;5.53;2.42;;;17.70;73.20;17.70;100322.00;;;;4878360;28;89369;-63
2024/03/12 10:51:42;;;;;;;2.58;2.03;;;17.60;72.50;17.40;100318.00;;;;4881017;28;87972;-63
2024/03/12 10:54:21;;;;;;;3.88;1.92;;;17.50;72.80;17.10;100324.00;;;;4884251;28;87140;-64
2024/03/12 10:56:48;;;;;;;3.33;2.00;;;17.20;72.70;16.90;100333.00;;;;4885012;28;87818;-64
2024/03/12 10:59:16;;;;;;;3.75;2.92;;;17.00;74.20;16.80;100330.00;;;;4877701;28;88092;-65
2024/03/12 11:01:43;;;;;;;3.90;2.22;;;16.90;74.60;16.80;100320.00;;;;4880530;28;88820;-63
2024/03/12 11:04:10;;;;;;;3.65;2.10;;;16.80;75.30;16.80;100333.00;;;;4881172;28;87600;-64